Metar z pełnej godziny Komunikat METAR ze strony awiacja.imgw.pl Metar G00 EPPO METAR EPPO 240500Z 20011KT 6000 BKN011 03/02 Q1019 R10/290095 =